sensor_id;sensor_type;location;lat;lon;timestamp;P1;durP1;ratioP1;P2;durP2;ratioP2
33246;SDS011;19606;50.108;19.804;2022-12-20T00:01:23;312.08;;;114.05;;
33246;SDS011;19606;50.108;19.804;2022-12-20T00:03:51;324.52;;;125.45;;
33246;SDS011;19606;50.108;19.804;2022-12-20T00:06:19;298.02;;;114.95;;
33246;SDS011;19606;50.108;19.804;2022-12-20T00:08:45;279.50;;;103.38;;
33246;SDS011;19606;50.108;19.804;2022-12-20T00:11:16;282.10;;;106.93;;
33246;SDS011;19606;50.108;19.804;2022-12-20T00:13:42;247.90;;;94.05;;
33246;SDS011;19606;50.108;19.804;2022-12-20T00:16:12;310.05;;;113.47;;
33246;SDS011;19606;50.108;19.804;2022-12-20T00:18:39;291.77;;;107.68;;
33246;SDS011;19606;50.108;19.804;2022-12-20T00:21:06;293.35;;;112.07;;
33246;SDS011;19606;50.108;19.804;2022-12-20T00:23:33;295.70;;;108.85;;
33246;SDS011;19606;50.108;19.804;2022-12-20T00:26:07;283.38;;;112.28;;
33246;SDS011;19606;50.108;19.804;2022-12-20T00:28:40;288.73;;;109.00;;
33246;SDS011;19606;50.108;19.804;2022-12-20T00:31:07;293.80;;;111.45;;
33246;SDS011;19606;50.108;19.804;2022-12-20T00:33:34;304.55;;;113.65;;
33246;SDS011;19606;50.108;19.804;2022-12-20T00:36:01;305.00;;;122.00;;
33246;SDS011;19606;50.108;19.804;2022-12-20T00:38:29;303.95;;;109.22;;
33246;SDS011;19606;50.108;19.804;2022-12-20T00:41:02;310.65;;;123.70;;
33246;SDS011;19606;50.108;19.804;2022-12-20T00:43:31;287.80;;;107.53;;
33246;SDS011;19606;50.108;19.804;2022-12-20T00:45:57;303.63;;;119.55;;
33246;SDS011;19606;50.108;19.804;2022-12-20T00:48:23;294.10;;;115.18;;
33246;SDS011;19606;50.108;19.804;2022-12-20T00:50:50;217.27;;;84.05;;
33246;SDS011;19606;50.108;19.804;2022-12-20T00:53:15;314.65;;;123.60;;
33246;SDS011;19606;50.108;19.804;2022-12-20T00:55:41;259.35;;;92.03;;
33246;SDS011;19606;50.108;19.804;2022-12-20T00:58:08;310.45;;;123.63;;
33246;SDS011;19606;50.108;19.804;2022-12-20T01:00:34;327.90;;;121.50;;
33246;SDS011;19606;50.108;19.804;2022-12-20T01:03:00;266.17;;;104.20;;
33246;SDS011;19606;50.108;19.804;2022-12-20T01:05:25;326.00;;;129.98;;
33246;SDS011;19606;50.108;19.804;2022-12-20T01:07:51;266.50;;;103.95;;
33246;SDS011;19606;50.108;19.804;2022-12-20T01:10:17;278.23;;;105.65;;
33246;SDS011;19606;50.108;19.804;2022-12-20T01:12:42;303.20;;;117.43;;
33246;SDS011;19606;50.108;19.804;2022-12-20T01:15:09;291.05;;;114.10;;
33246;SDS011;19606;50.108;19.804;2022-12-20T01:17:35;252.75;;;94.75;;
33246;SDS011;19606;50.108;19.804;2022-12-20T01:20:00;324.40;;;124.55;;
33246;SDS011;19606;50.108;19.804;2022-12-20T01:22:26;295.88;;;110.03;;
33246;SDS011;19606;50.108;19.804;2022-12-20T01:24:52;295.65;;;114.03;;
33246;SDS011;19606;50.108;19.804;2022-12-20T01:27:17;303.60;;;117.65;;
33246;SDS011;19606;50.108;19.804;2022-12-20T01:29:43;308.20;;;114.53;;
33246;SDS011;19606;50.108;19.804;2022-12-20T01:32:09;313.33;;;113.63;;
33246;SDS011;19606;50.108;19.804;2022-12-20T01:34:35;282.75;;;107.32;;
33246;SDS011;19606;50.108;19.804;2022-12-20T01:37:00;318.52;;;124.45;;
33246;SDS011;19606;50.108;19.804;2022-12-20T01:39:26;304.27;;;119.45;;
33246;SDS011;19606;50.108;19.804;2022-12-20T01:41:51;238.27;;;92.03;;
33246;SDS011;19606;50.108;19.804;2022-12-20T01:46:43;214.70;;;84.50;;
33246;SDS011;19606;50.108;19.804;2022-12-20T01:49:11;241.60;;;95.10;;
33246;SDS011;19606;50.108;19.804;2022-12-20T01:51:45;294.58;;;109.53;;
33246;SDS011;19606;50.108;19.804;2022-12-20T01:54:24;279.92;;;105.25;;
33246;SDS011;19606;50.108;19.804;2022-12-20T01:56:56;265.70;;;103.13;;
33246;SDS011;19606;50.108;19.804;2022-12-20T01:59:26;273.63;;;99.07;;
33246;SDS011;19606;50.108;19.804;2022-12-20T02:01:53;319.75;;;117.72;;
33246;SDS011;19606;50.108;19.804;2022-12-20T02:04:22;321.30;;;123.45;;
33246;SDS011;19606;50.108;19.804;2022-12-20T02:06:48;316.98;;;121.70;;
33246;SDS011;19606;50.108;19.804;2022-12-20T02:09:14;312.92;;;122.72;;
33246;SDS011;19606;50.108;19.804;2022-12-20T02:15:02;252.02;;;91.65;;
33246;SDS011;19606;50.108;19.804;2022-12-20T02:23:08;279.92;;;107.18;;
33246;SDS011;19606;50.108;19.804;2022-12-20T02:25:51;280.33;;;100.20;;
33246;SDS011;19606;50.108;19.804;2022-12-20T02:28:37;285.35;;;113.72;;
33246;SDS011;19606;50.108;19.804;2022-12-20T02:31:07;284.52;;;106.30;;
33246;SDS011;19606;50.108;19.804;2022-12-20T02:33:37;253.45;;;98.85;;
33246;SDS011;19606;50.108;19.804;2022-12-20T02:36:06;290.52;;;110.28;;
33246;SDS011;19606;50.108;19.804;2022-12-20T02:38:36;247.68;;;94.82;;
33246;SDS011;19606;50.108;19.804;2022-12-20T02:43:47;212.00;;;85.55;;
33246;SDS011;19606;50.108;19.804;2022-12-20T02:46:35;246.07;;;97.47;;
33246;SDS011;19606;50.108;19.804;2022-12-20T02:49:04;264.52;;;105.53;;
33246;SDS011;19606;50.108;19.804;2022-12-20T02:51:35;267.67;;;105.93;;
33246;SDS011;19606;50.108;19.804;2022-12-20T02:54:01;262.58;;;105.45;;
33246;SDS011;19606;50.108;19.804;2022-12-20T02:56:36;284.40;;;115.85;;
33246;SDS011;19606;50.108;19.804;2022-12-20T03:01:44;430.40;;;180.73;;
33246;SDS011;19606;50.108;19.804;2022-12-20T03:04:19;360.27;;;152.70;;
33246;SDS011;19606;50.108;19.804;2022-12-20T03:09:43;310.83;;;127.80;;
33246;SDS011;19606;50.108;19.804;2022-12-20T03:12:09;379.45;;;148.07;;
33246;SDS011;19606;50.108;19.804;2022-12-20T03:14:37;391.25;;;163.18;;
33246;SDS011;19606;50.108;19.804;2022-12-20T03:17:03;343.90;;;140.93;;
33246;SDS011;19606;50.108;19.804;2022-12-20T03:19:29;228.32;;;90.97;;
33246;SDS011;19606;50.108;19.804;2022-12-20T03:21:55;264.55;;;104.72;;
33246;SDS011;19606;50.108;19.804;2022-12-20T03:24:21;267.17;;;106.43;;
33246;SDS011;19606;50.108;19.804;2022-12-20T03:26:47;285.67;;;114.85;;
33246;SDS011;19606;50.108;19.804;2022-12-20T03:29:12;322.60;;;124.47;;
33246;SDS011;19606;50.108;19.804;2022-12-20T03:31:38;263.65;;;99.57;;
33246;SDS011;19606;50.108;19.804;2022-12-20T03:34:04;293.27;;;109.18;;
33246;SDS011;19606;50.108;19.804;2022-12-20T03:36:30;270.27;;;107.32;;
33246;SDS011;19606;50.108;19.804;2022-12-20T03:38:56;250.35;;;95.60;;
33246;SDS011;19606;50.108;19.804;2022-12-20T03:41:22;259.23;;;103.57;;
33246;SDS011;19606;50.108;19.804;2022-12-20T03:43:48;230.60;;;83.78;;
33246;SDS011;19606;50.108;19.804;2022-12-20T03:46:14;202.63;;;75.88;;
33246;SDS011;19606;50.108;19.804;2022-12-20T03:48:40;160.23;;;63.33;;
33246;SDS011;19606;50.108;19.804;2022-12-20T03:51:06;168.73;;;64.40;;
33246;SDS011;19606;50.108;19.804;2022-12-20T03:53:32;202.38;;;76.00;;
33246;SDS011;19606;50.108;19.804;2022-12-20T03:55:57;204.10;;;79.22;;
33246;SDS011;19606;50.108;19.804;2022-12-20T03:58:23;191.13;;;75.45;;
33246;SDS011;19606;50.108;19.804;2022-12-20T04:00:49;174.93;;;63.45;;
33246;SDS011;19606;50.108;19.804;2022-12-20T04:03:15;167.48;;;63.20;;
33246;SDS011;19606;50.108;19.804;2022-12-20T04:05:41;174.45;;;65.47;;
33246;SDS011;19606;50.108;19.804;2022-12-20T04:08:06;205.77;;;77.47;;
33246;SDS011;19606;50.108;19.804;2022-12-20T04:10:32;203.75;;;76.70;;
33246;SDS011;19606;50.108;19.804;2022-12-20T04:13:18;167.98;;;66.93;;
33246;SDS011;19606;50.108;19.804;2022-12-20T04:15:43;157.20;;;58.72;;
33246;SDS011;19606;50.108;19.804;2022-12-20T04:18:09;159.70;;;61.97;;
33246;SDS011;19606;50.108;19.804;2022-12-20T04:20:34;142.35;;;51.63;;
33246;SDS011;19606;50.108;19.804;2022-12-20T04:23:00;149.98;;;60.70;;
33246;SDS011;19606;50.108;19.804;2022-12-20T04:25:26;119.20;;;47.08;;
33246;SDS011;19606;50.108;19.804;2022-12-20T04:27:51;134.10;;;49.78;;
33246;SDS011;19606;50.108;19.804;2022-12-20T04:30:17;112.25;;;43.50;;
33246;SDS011;19606;50.108;19.804;2022-12-20T04:32:43;71.85;;;25.50;;
33246;SDS011;19606;50.108;19.804;2022-12-20T04:35:08;66.45;;;23.63;;
33246;SDS011;19606;50.108;19.804;2022-12-20T04:37:35;65.03;;;24.77;;
33246;SDS011;19606;50.108;19.804;2022-12-20T04:40:00;51.05;;;21.02;;
33246;SDS011;19606;50.108;19.804;2022-12-20T04:42:26;52.58;;;21.60;;
33246;SDS011;19606;50.108;19.804;2022-12-20T04:44:51;54.30;;;23.38;;
33246;SDS011;19606;50.108;19.804;2022-12-20T04:47:17;56.25;;;22.55;;
33246;SDS011;19606;50.108;19.804;2022-12-20T04:49:43;49.90;;;20.95;;
33246;SDS011;19606;50.108;19.804;2022-12-20T04:52:08;53.03;;;21.38;;
33246;SDS011;19606;50.108;19.804;2022-12-20T04:54:52;52.17;;;21.25;;
33246;SDS011;19606;50.108;19.804;2022-12-20T04:57:18;56.63;;;21.98;;
33246;SDS011;19606;50.108;19.804;2022-12-20T04:59:44;49.25;;;19.70;;
33246;SDS011;19606;50.108;19.804;2022-12-20T05:02:09;55.53;;;22.13;;
33246;SDS011;19606;50.108;19.804;2022-12-20T05:04:35;48.00;;;19.98;;
33246;SDS011;19606;50.108;19.804;2022-12-20T05:07:00;55.38;;;21.52;;
33246;SDS011;19606;50.108;19.804;2022-12-20T05:09:26;66.78;;;24.48;;
33246;SDS011;19606;50.108;19.804;2022-12-20T05:11:52;56.25;;;22.70;;
33246;SDS011;19606;50.108;19.804;2022-12-20T05:14:17;60.85;;;24.00;;
33246;SDS011;19606;50.108;19.804;2022-12-20T05:16:43;52.97;;;23.75;;
33246;SDS011;19606;50.108;19.804;2022-12-20T05:19:09;55.65;;;21.77;;
33246;SDS011;19606;50.108;19.804;2022-12-20T05:21:35;56.92;;;23.52;;
33246;SDS011;19606;50.108;19.804;2022-12-20T05:24:19;50.75;;;22.05;;
33246;SDS011;19606;50.108;19.804;2022-12-20T05:27:03;59.75;;;23.80;;
33246;SDS011;19606;50.108;19.804;2022-12-20T05:29:28;51.63;;;22.20;;
33246;SDS011;19606;50.108;19.804;2022-12-20T05:31:54;55.80;;;23.52;;
33246;SDS011;19606;50.108;19.804;2022-12-20T05:34:20;49.05;;;19.92;;
33246;SDS011;19606;50.108;19.804;2022-12-20T05:36:45;56.67;;;23.23;;
33246;SDS011;19606;50.108;19.804;2022-12-20T05:39:11;54.47;;;19.80;;
33246;SDS011;19606;50.108;19.804;2022-12-20T05:41:37;53.22;;;22.85;;
33246;SDS011;19606;50.108;19.804;2022-12-20T05:44:04;51.67;;;20.15;;
33246;SDS011;19606;50.108;19.804;2022-12-20T05:46:30;55.30;;;21.25;;
33246;SDS011;19606;50.108;19.804;2022-12-20T05:48:56;52.60;;;22.70;;
33246;SDS011;19606;50.108;19.804;2022-12-20T05:51:22;52.13;;;21.63;;
33246;SDS011;19606;50.108;19.804;2022-12-20T05:53:47;59.05;;;22.98;;
33246;SDS011;19606;50.108;19.804;2022-12-20T05:56:13;51.40;;;19.92;;
33246;SDS011;19606;50.108;19.804;2022-12-20T05:58:39;48.95;;;20.73;;
33246;SDS011;19606;50.108;19.804;2022-12-20T06:01:05;51.45;;;21.02;;
33246;SDS011;19606;50.108;19.804;2022-12-20T06:03:32;51.20;;;20.75;;
33246;SDS011;19606;50.108;19.804;2022-12-20T06:05:57;62.13;;;21.80;;
33246;SDS011;19606;50.108;19.804;2022-12-20T06:08:23;56.40;;;21.15;;
33246;SDS011;19606;50.108;19.804;2022-12-20T06:10:49;51.08;;;19.77;;
33246;SDS011;19606;50.108;19.804;2022-12-20T06:13:15;54.70;;;22.25;;
33246;SDS011;19606;50.108;19.804;2022-12-20T06:15:41;45.38;;;18.27;;
33246;SDS011;19606;50.108;19.804;2022-12-20T06:18:07;74.05;;;25.77;;
33246;SDS011;19606;50.108;19.804;2022-12-20T06:20:33;82.95;;;33.22;;
33246;SDS011;19606;50.108;19.804;2022-12-20T06:22:59;73.93;;;30.20;;
33246;SDS011;19606;50.108;19.804;2022-12-20T06:25:26;50.33;;;19.38;;
33246;SDS011;19606;50.108;19.804;2022-12-20T06:27:52;63.97;;;23.83;;
33246;SDS011;19606;50.108;19.804;2022-12-20T06:30:17;58.45;;;25.02;;
33246;SDS011;19606;50.108;19.804;2022-12-20T06:32:43;65.82;;;26.40;;
33246;SDS011;19606;50.108;19.804;2022-12-20T06:35:09;54.80;;;23.48;;
33246;SDS011;19606;50.108;19.804;2022-12-20T06:37:35;54.65;;;23.30;;
33246;SDS011;19606;50.108;19.804;2022-12-20T06:40:01;66.40;;;26.55;;
33246;SDS011;19606;50.108;19.804;2022-12-20T06:42:29;67.65;;;27.38;;
33246;SDS011;19606;50.108;19.804;2022-12-20T06:44:55;64.65;;;26.80;;
33246;SDS011;19606;50.108;19.804;2022-12-20T06:47:20;66.00;;;26.85;;
33246;SDS011;19606;50.108;19.804;2022-12-20T06:49:46;68.32;;;28.05;;
33246;SDS011;19606;50.108;19.804;2022-12-20T06:52:12;59.05;;;23.77;;
33246;SDS011;19606;50.108;19.804;2022-12-20T06:54:37;52.03;;;21.70;;
33246;SDS011;19606;50.108;19.804;2022-12-20T06:57:03;70.70;;;25.75;;
33246;SDS011;19606;50.108;19.804;2022-12-20T06:59:28;66.18;;;27.08;;
33246;SDS011;19606;50.108;19.804;2022-12-20T07:01:54;71.32;;;27.17;;
33246;SDS011;19606;50.108;19.804;2022-12-20T07:04:20;65.00;;;26.20;;
33246;SDS011;19606;50.108;19.804;2022-12-20T07:06:45;71.70;;;28.65;;
33246;SDS011;19606;50.108;19.804;2022-12-20T07:09:11;58.45;;;24.90;;
33246;SDS011;19606;50.108;19.804;2022-12-20T07:11:37;69.38;;;29.42;;
33246;SDS011;19606;50.108;19.804;2022-12-20T07:14:02;67.22;;;26.17;;
33246;SDS011;19606;50.108;19.804;2022-12-20T07:16:28;72.30;;;28.90;;
33246;SDS011;19606;50.108;19.804;2022-12-20T07:18:56;61.38;;;24.80;;
33246;SDS011;19606;50.108;19.804;2022-12-20T07:21:21;45.55;;;20.38;;
33246;SDS011;19606;50.108;19.804;2022-12-20T07:23:47;60.65;;;26.17;;
33246;SDS011;19606;50.108;19.804;2022-12-20T07:26:13;72.03;;;29.23;;
33246;SDS011;19606;50.108;19.804;2022-12-20T07:28:39;50.20;;;20.23;;
33246;SDS011;19606;50.108;19.804;2022-12-20T07:31:06;57.13;;;23.77;;
33246;SDS011;19606;50.108;19.804;2022-12-20T07:33:32;38.97;;;17.90;;
33246;SDS011;19606;50.108;19.804;2022-12-20T07:36:01;63.78;;;26.75;;
33246;SDS011;19606;50.108;19.804;2022-12-20T07:38:29;61.38;;;25.42;;
33246;SDS011;19606;50.108;19.804;2022-12-20T07:40:54;58.58;;;22.67;;
33246;SDS011;19606;50.108;19.804;2022-12-20T07:43:20;53.50;;;19.52;;
33246;SDS011;19606;50.108;19.804;2022-12-20T07:45:46;48.50;;;17.15;;
33246;SDS011;19606;50.108;19.804;2022-12-20T07:48:12;60.45;;;23.70;;
33246;SDS011;19606;50.108;19.804;2022-12-20T07:50:38;57.38;;;23.70;;
33246;SDS011;19606;50.108;19.804;2022-12-20T07:53:05;58.78;;;23.65;;
33246;SDS011;19606;50.108;19.804;2022-12-20T07:55:33;53.00;;;19.88;;
33246;SDS011;19606;50.108;19.804;2022-12-20T07:58:01;57.85;;;21.55;;
33246;SDS011;19606;50.108;19.804;2022-12-20T08:00:31;54.45;;;22.05;;
33246;SDS011;19606;50.108;19.804;2022-12-20T08:03:01;67.97;;;28.60;;
33246;SDS011;19606;50.108;19.804;2022-12-20T08:05:42;63.17;;;24.85;;
33246;SDS011;19606;50.108;19.804;2022-12-20T08:08:12;52.20;;;20.50;;
33246;SDS011;19606;50.108;19.804;2022-12-20T08:10:39;62.22;;;23.52;;
33246;SDS011;19606;50.108;19.804;2022-12-20T08:13:06;52.22;;;21.23;;
33246;SDS011;19606;50.108;19.804;2022-12-20T08:15:32;44.75;;;17.45;;
33246;SDS011;19606;50.108;19.804;2022-12-20T08:17:59;52.72;;;23.10;;
33246;SDS011;19606;50.108;19.804;2022-12-20T08:20:25;61.40;;;23.92;;
33246;SDS011;19606;50.108;19.804;2022-12-20T08:22:50;55.05;;;23.85;;
33246;SDS011;19606;50.108;19.804;2022-12-20T08:25:16;55.05;;;21.30;;
33246;SDS011;19606;50.108;19.804;2022-12-20T08:27:42;52.50;;;21.85;;
33246;SDS011;19606;50.108;19.804;2022-12-20T08:30:07;54.92;;;20.98;;
33246;SDS011;19606;50.108;19.804;2022-12-20T08:32:34;49.72;;;23.45;;
33246;SDS011;19606;50.108;19.804;2022-12-20T08:35:01;55.35;;;23.55;;
33246;SDS011;19606;50.108;19.804;2022-12-20T08:37:26;50.75;;;21.50;;
33246;SDS011;19606;50.108;19.804;2022-12-20T08:39:52;53.40;;;22.45;;
33246;SDS011;19606;50.108;19.804;2022-12-20T08:42:18;51.20;;;21.15;;
33246;SDS011;19606;50.108;19.804;2022-12-20T08:44:43;53.63;;;23.13;;
33246;SDS011;19606;50.108;19.804;2022-12-20T08:47:09;54.05;;;25.05;;
33246;SDS011;19606;50.108;19.804;2022-12-20T08:49:35;53.95;;;22.77;;
33246;SDS011;19606;50.108;19.804;2022-12-20T08:52:00;55.40;;;23.23;;
33246;SDS011;19606;50.108;19.804;2022-12-20T08:54:27;62.05;;;25.23;;
33246;SDS011;19606;50.108;19.804;2022-12-20T08:56:52;60.95;;;26.30;;
33246;SDS011;19606;50.108;19.804;2022-12-20T08:59:18;64.65;;;27.17;;
33246;SDS011;19606;50.108;19.804;2022-12-20T09:01:44;62.53;;;26.95;;
33246;SDS011;19606;50.108;19.804;2022-12-20T09:04:10;47.90;;;22.23;;
33246;SDS011;19606;50.108;19.804;2022-12-20T09:06:36;51.55;;;22.08;;
33246;SDS011;19606;50.108;19.804;2022-12-20T09:09:02;52.72;;;26.30;;
33246;SDS011;19606;50.108;19.804;2022-12-20T09:11:28;48.67;;;23.17;;
33246;SDS011;19606;50.108;19.804;2022-12-20T09:13:55;50.20;;;22.10;;
33246;SDS011;19606;50.108;19.804;2022-12-20T09:16:23;53.03;;;24.23;;
33246;SDS011;19606;50.108;19.804;2022-12-20T09:18:52;62.63;;;27.48;;
33246;SDS011;19606;50.108;19.804;2022-12-20T09:21:19;57.22;;;26.60;;
33246;SDS011;19606;50.108;19.804;2022-12-20T09:23:46;48.08;;;23.27;;
33246;SDS011;19606;50.108;19.804;2022-12-20T09:26:15;55.78;;;25.88;;
33246;SDS011;19606;50.108;19.804;2022-12-20T09:28:42;57.00;;;25.65;;
33246;SDS011;19606;50.108;19.804;2022-12-20T09:31:21;61.83;;;27.95;;
33246;SDS011;19606;50.108;19.804;2022-12-20T09:33:48;52.85;;;24.17;;
33246;SDS011;19606;50.108;19.804;2022-12-20T09:36:18;54.25;;;24.75;;
33246;SDS011;19606;50.108;19.804;2022-12-20T09:38:44;53.35;;;21.90;;
33246;SDS011;19606;50.108;19.804;2022-12-20T09:43:57;57.88;;;26.10;;
33246;SDS011;19606;50.108;19.804;2022-12-20T09:46:28;54.80;;;25.02;;
33246;SDS011;19606;50.108;19.804;2022-12-20T09:48:54;58.33;;;26.27;;
33246;SDS011;19606;50.108;19.804;2022-12-20T09:51:27;70.35;;;30.40;;
33246;SDS011;19606;50.108;19.804;2022-12-20T09:59:54;58.70;;;26.15;;
33246;SDS011;19606;50.108;19.804;2022-12-20T10:02:22;65.80;;;28.73;;
33246;SDS011;19606;50.108;19.804;2022-12-20T10:04:49;42.22;;;17.83;;
33246;SDS011;19606;50.108;19.804;2022-12-20T10:16:01;59.75;;;25.60;;
33246;SDS011;19606;50.108;19.804;2022-12-20T10:24:29;54.17;;;25.58;;
33246;SDS011;19606;50.108;19.804;2022-12-20T10:27:13;66.05;;;31.05;;
33246;SDS011;19606;50.108;19.804;2022-12-20T10:29:41;48.25;;;21.80;;
33246;SDS011;19606;50.108;19.804;2022-12-20T10:32:10;57.83;;;26.45;;
33246;SDS011;19606;50.108;19.804;2022-12-20T10:34:56;54.45;;;27.52;;
33246;SDS011;19606;50.108;19.804;2022-12-20T10:37:55;47.83;;;20.30;;
33246;SDS011;19606;50.108;19.804;2022-12-20T10:40:26;50.70;;;21.50;;
33246;SDS011;19606;50.108;19.804;2022-12-20T10:43:03;49.15;;;24.73;;
33246;SDS011;19606;50.108;19.804;2022-12-20T10:45:37;59.65;;;29.10;;
33246;SDS011;19606;50.108;19.804;2022-12-20T10:48:05;56.22;;;27.52;;
33246;SDS011;19606;50.108;19.804;2022-12-20T10:50:59;48.60;;;24.05;;
33246;SDS011;19606;50.108;19.804;2022-12-20T10:53:37;53.78;;;25.38;;
33246;SDS011;19606;50.108;19.804;2022-12-20T10:59:21;54.40;;;28.38;;
33246;SDS011;19606;50.108;19.804;2022-12-20T11:01:54;52.45;;;24.73;;
33246;SDS011;19606;50.108;19.804;2022-12-20T11:06:53;52.20;;;25.30;;
33246;SDS011;19606;50.108;19.804;2022-12-20T11:09:23;51.92;;;25.58;;
33246;SDS011;19606;50.108;19.804;2022-12-20T11:14:23;55.25;;;27.10;;
33246;SDS011;19606;50.108;19.804;2022-12-20T11:16:50;57.58;;;29.20;;
33246;SDS011;19606;50.108;19.804;2022-12-20T11:21:50;55.60;;;28.20;;
33246;SDS011;19606;50.108;19.804;2022-12-20T11:24:29;62.40;;;29.70;;
33246;SDS011;19606;50.108;19.804;2022-12-20T11:27:06;64.47;;;30.95;;
33246;SDS011;19606;50.108;19.804;2022-12-20T11:36:16;62.05;;;28.33;;
33246;SDS011;19606;50.108;19.804;2022-12-20T11:38:45;59.90;;;25.45;;
33246;SDS011;19606;50.108;19.804;2022-12-20T11:41:46;58.90;;;26.25;;
33246;SDS011;19606;50.108;19.804;2022-12-20T11:44:27;61.28;;;29.42;;
33246;SDS011;19606;50.108;19.804;2022-12-20T11:47:10;62.67;;;27.52;;
33246;SDS011;19606;50.108;19.804;2022-12-20T11:52:37;60.72;;;27.38;;
33246;SDS011;19606;50.108;19.804;2022-12-20T11:55:26;60.47;;;28.83;;
33246;SDS011;19606;50.108;19.804;2022-12-20T12:00:29;57.53;;;26.15;;
33246;SDS011;19606;50.108;19.804;2022-12-20T12:03:10;59.67;;;26.20;;
33246;SDS011;19606;50.108;19.804;2022-12-20T12:05:46;57.58;;;27.27;;
33246;SDS011;19606;50.108;19.804;2022-12-20T12:08:21;62.20;;;27.67;;
33246;SDS011;19606;50.108;19.804;2022-12-20T12:11:00;55.25;;;26.60;;
33246;SDS011;19606;50.108;19.804;2022-12-20T12:13:47;65.68;;;28.55;;
33246;SDS011;19606;50.108;19.804;2022-12-20T12:18:48;59.42;;;27.55;;
33246;SDS011;19606;50.108;19.804;2022-12-20T12:23:55;61.92;;;30.67;;
33246;SDS011;19606;50.108;19.804;2022-12-20T12:26:34;65.93;;;28.87;;
33246;SDS011;19606;50.108;19.804;2022-12-20T12:29:03;62.90;;;29.10;;
33246;SDS011;19606;50.108;19.804;2022-12-20T12:31:35;56.40;;;25.90;;
33246;SDS011;19606;50.108;19.804;2022-12-20T12:42:57;64.15;;;27.23;;
33246;SDS011;19606;50.108;19.804;2022-12-20T12:48:15;58.50;;;28.27;;
33246;SDS011;19606;50.108;19.804;2022-12-20T12:50:50;65.38;;;29.70;;
33246;SDS011;19606;50.108;19.804;2022-12-20T12:53:25;64.75;;;28.00;;
33246;SDS011;19606;50.108;19.804;2022-12-20T13:11:44;67.55;;;30.50;;
33246;SDS011;19606;50.108;19.804;2022-12-20T13:16:42;65.88;;;28.95;;
33246;SDS011;19606;50.108;19.804;2022-12-20T13:19:12;62.63;;;27.15;;
33246;SDS011;19606;50.108;19.804;2022-12-20T13:21:55;63.80;;;28.25;;
33246;SDS011;19606;50.108;19.804;2022-12-20T13:29:53;62.45;;;27.60;;
33246;SDS011;19606;50.108;19.804;2022-12-20T13:37:57;63.15;;;27.13;;
33246;SDS011;19606;50.108;19.804;2022-12-20T13:40:51;65.05;;;26.17;;
33246;SDS011;19606;50.108;19.804;2022-12-20T13:48:24;64.70;;;26.45;;
33246;SDS011;19606;50.108;19.804;2022-12-20T13:50:54;60.30;;;24.80;;
33246;SDS011;19606;50.108;19.804;2022-12-20T13:53:24;57.85;;;24.10;;
33246;SDS011;19606;50.108;19.804;2022-12-20T13:55:51;60.28;;;24.80;;
33246;SDS011;19606;50.108;19.804;2022-12-20T13:58:23;53.05;;;22.15;;
33246;SDS011;19606;50.108;19.804;2022-12-20T14:00:50;55.58;;;22.63;;
33246;SDS011;19606;50.108;19.804;2022-12-20T14:03:19;53.15;;;22.48;;
33246;SDS011;19606;50.108;19.804;2022-12-20T14:05:45;59.20;;;22.17;;
33246;SDS011;19606;50.108;19.804;2022-12-20T14:08:18;56.88;;;21.42;;
33246;SDS011;19606;50.108;19.804;2022-12-20T14:10:46;67.75;;;25.38;;
33246;SDS011;19606;50.108;19.804;2022-12-20T14:13:16;80.68;;;27.38;;
33246;SDS011;19606;50.108;19.804;2022-12-20T14:15:47;56.30;;;21.85;;
33246;SDS011;19606;50.108;19.804;2022-12-20T14:20:45;70.70;;;24.60;;
33246;SDS011;19606;50.108;19.804;2022-12-20T14:23:25;48.15;;;16.63;;
33246;SDS011;19606;50.108;19.804;2022-12-20T14:26:10;70.72;;;27.67;;
33246;SDS011;19606;50.108;19.804;2022-12-20T14:28:38;59.47;;;22.42;;
33246;SDS011;19606;50.108;19.804;2022-12-20T14:31:21;55.60;;;24.30;;
33246;SDS011;19606;50.108;19.804;2022-12-20T14:33:50;65.78;;;23.77;;
33246;SDS011;19606;50.108;19.804;2022-12-20T14:36:41;66.07;;;26.90;;
33246;SDS011;19606;50.108;19.804;2022-12-20T14:44:32;90.05;;;32.78;;
33246;SDS011;19606;50.108;19.804;2022-12-20T14:47:20;111.15;;;40.80;;
33246;SDS011;19606;50.108;19.804;2022-12-20T14:52:46;102.07;;;35.85;;
33246;SDS011;19606;50.108;19.804;2022-12-20T14:57:45;84.10;;;30.17;;
33246;SDS011;19606;50.108;19.804;2022-12-20T15:10:58;65.03;;;28.27;;
33246;SDS011;19606;50.108;19.804;2022-12-20T15:13:37;64.95;;;27.17;;
33246;SDS011;19606;50.108;19.804;2022-12-20T15:16:17;67.20;;;28.42;;
33246;SDS011;19606;50.108;19.804;2022-12-20T15:18:44;60.17;;;25.93;;
33246;SDS011;19606;50.108;19.804;2022-12-20T15:21:14;67.65;;;27.13;;
33246;SDS011;19606;50.108;19.804;2022-12-20T15:24:00;71.03;;;27.83;;
33246;SDS011;19606;50.108;19.804;2022-12-20T15:26:33;68.20;;;28.48;;
33246;SDS011;19606;50.108;19.804;2022-12-20T15:28:59;63.50;;;24.55;;
33246;SDS011;19606;50.108;19.804;2022-12-20T15:31:25;96.50;;;40.22;;
33246;SDS011;19606;50.108;19.804;2022-12-20T15:33:52;62.17;;;24.35;;
33246;SDS011;19606;50.108;19.804;2022-12-20T15:36:22;62.42;;;27.08;;
33246;SDS011;19606;50.108;19.804;2022-12-20T15:38:50;69.10;;;26.05;;
33246;SDS011;19606;50.108;19.804;2022-12-20T15:41:26;67.82;;;28.42;;
33246;SDS011;19606;50.108;19.804;2022-12-20T15:43:58;48.05;;;18.88;;
33246;SDS011;19606;50.108;19.804;2022-12-20T15:46:44;61.27;;;27.17;;
33246;SDS011;19606;50.108;19.804;2022-12-20T15:49:16;58.38;;;25.98;;
33246;SDS011;19606;50.108;19.804;2022-12-20T15:51:42;65.00;;;24.27;;
33246;SDS011;19606;50.108;19.804;2022-12-20T15:54:19;65.47;;;29.35;;
33246;SDS011;19606;50.108;19.804;2022-12-20T15:56:46;67.78;;;30.23;;
33246;SDS011;19606;50.108;19.804;2022-12-20T15:59:12;75.43;;;33.40;;
33246;SDS011;19606;50.108;19.804;2022-12-20T16:01:38;85.55;;;34.20;;
33246;SDS011;19606;50.108;19.804;2022-12-20T16:04:04;80.05;;;35.45;;
33246;SDS011;19606;50.108;19.804;2022-12-20T16:06:30;85.90;;;36.03;;
33246;SDS011;19606;50.108;19.804;2022-12-20T16:08:56;105.18;;;41.95;;
33246;SDS011;19606;50.108;19.804;2022-12-20T16:11:26;74.97;;;30.75;;
33246;SDS011;19606;50.108;19.804;2022-12-20T16:16:20;84.75;;;40.10;;
33246;SDS011;19606;50.108;19.804;2022-12-20T16:18:47;107.10;;;46.78;;
33246;SDS011;19606;50.108;19.804;2022-12-20T16:21:26;128.63;;;55.70;;
33246;SDS011;19606;50.108;19.804;2022-12-20T16:23:58;133.27;;;56.72;;
33246;SDS011;19606;50.108;19.804;2022-12-20T16:26:24;162.15;;;63.63;;
33246;SDS011;19606;50.108;19.804;2022-12-20T16:28:54;165.15;;;66.13;;
33246;SDS011;19606;50.108;19.804;2022-12-20T16:33:52;178.60;;;74.68;;
33246;SDS011;19606;50.108;19.804;2022-12-20T16:36:19;197.00;;;75.40;;
33246;SDS011;19606;50.108;19.804;2022-12-20T16:38:46;169.18;;;74.60;;
33246;SDS011;19606;50.108;19.804;2022-12-20T16:41:13;143.88;;;57.97;;